Time;durP1;ratioP1;P1;durP2;ratioP2;P2;SDS_P1;SDS_P2;PMS_P1;PMS_P2;Temp;Humidity;BMP_temperature;BMP_pressure;BME280_temperature;BME280_humidity;BME280_pressure;Samples;Min_cycle;Max_cycle;Signal;HPM_P1;HPM_P2
2023/05/24 00:00:20;;;;;;;5.80;2.17;;;18.60;50.60;;;;;;5084277;28;20275;-70
2023/05/24 00:02:47;;;;;;;8.70;2.47;;;18.60;50.60;;;;;;5094451;28;20561;-71
2023/05/24 00:05:15;;;;;;;7.82;2.47;;;18.60;50.60;;;;;;5093499;28;20225;-70
2023/05/24 00:07:42;;;;;;;9.07;2.35;;;18.60;50.60;;;;;;5094634;28;20236;-70
2023/05/24 00:10:12;;;;;;;7.40;2.58;;;18.60;50.60;;;;;;5093789;28;20651;-70
2023/05/24 00:12:39;;;;;;;6.97;2.60;;;18.60;50.60;;;;;;5094217;28;20301;-71
2023/05/24 00:15:07;;;;;;;4.38;1.98;;;18.60;50.60;;;;;;5093865;28;20231;-71
2023/05/24 00:17:39;;;;;;;7.60;2.47;;;18.60;50.60;;;;;;5094345;28;20305;-70
2023/05/24 00:20:09;;;;;;;7.22;1.95;;;18.60;50.70;;;;;;5076650;28;20228;-70
2023/05/24 00:22:36;;;;;;;6.53;2.15;;;18.60;50.60;;;;;;5094171;28;20213;-71
2023/05/24 00:25:03;;;;;;;7.30;2.47;;;18.60;50.70;;;;;;5093283;28;20251;-71
2023/05/24 00:27:33;;;;;;;4.85;1.80;;;18.60;50.70;;;;;;5094029;28;20218;-70
2023/05/24 00:30:00;;;;;;;5.50;2.00;;;18.60;50.70;;;;;;5092902;28;20260;-71
2023/05/24 00:32:27;;;;;;;6.82;2.22;;;18.60;50.70;;;;;;5094119;28;20278;-70
2023/05/24 00:34:54;;;;;;;6.95;2.33;;;18.60;50.70;;;;;;5093563;28;20189;-71
2023/05/24 00:37:22;;;;;;;4.40;1.90;;;18.60;50.70;;;;;;5093790;28;20216;-71
2023/05/24 00:39:49;;;;;;;6.07;2.13;;;18.60;50.70;;;;;;5093859;28;20178;-71
2023/05/24 00:42:16;;;;;;;6.22;2.72;;;18.60;50.70;;;;;;5089708;28;20252;-71
2023/05/24 00:44:46;;;;;;;7.05;2.50;;;18.60;50.70;;;;;;5093101;28;20213;-71
2023/05/24 00:47:13;;;;;;;6.57;2.10;;;18.60;50.70;;;;;;5081828;28;20225;-71
2023/05/24 00:49:40;;;;;;;5.82;2.10;;;18.60;50.70;;;;;;5097030;28;20236;-71
2023/05/24 00:52:07;;;;;;;7.72;2.25;;;18.60;50.70;;;;;;5084523;28;20236;-72
2023/05/24 00:54:34;;;;;;;5.57;2.13;;;18.60;50.70;;;;;;5092323;28;20202;-71
2023/05/24 00:57:02;;;;;;;3.85;2.00;;;18.50;50.60;;;;;;5072831;28;20215;-71
2023/05/24 00:59:30;;;;;;;5.07;2.13;;;18.50;50.60;;;;;;5073195;28;20195;-71
2023/05/24 01:01:58;;;;;;;5.50;1.90;;;18.60;51.40;;;;;;5072453;28;20704;-71
2023/05/24 01:04:26;;;;;;;5.40;1.80;;;18.50;50.70;;;;;;5073129;28;20231;-71
2023/05/24 01:07:06;;;;;;;7.78;2.10;;;18.50;50.60;;;;;;5055359;28;20215;-71
2023/05/24 01:09:38;;;;;;;6.35;2.00;;;18.50;50.70;;;;;;5073292;28;20195;-71
2023/05/24 01:12:19;;;;;;;4.15;2.13;;;18.50;50.70;;;;;;5072528;28;20699;-71
2023/05/24 01:14:58;;;;;;;5.72;2.22;;;18.50;50.70;;;;;;5073535;28;20699;-71
2023/05/24 01:17:31;;;;;;;4.82;2.05;;;18.50;50.70;;;;;;5092722;28;20605;-71
2023/05/24 01:20:05;;;;;;;3.30;1.73;;;18.50;50.70;;;;;;5092674;28;20273;-71
2023/05/24 01:23:04;;;;;;;4.82;2.03;;;18.50;50.70;;;;;;5093186;28;20213;-71
2023/05/24 01:25:53;;;;;;;6.80;2.20;;;18.50;50.70;;;;;;5092208;28;20304;-71
2023/05/24 01:28:23;;;;;;;6.78;2.30;;;18.50;50.70;;;;;;5093070;28;20213;-71
2023/05/24 01:30:51;;;;;;;5.13;2.17;;;18.50;50.70;;;;;;5073376;28;20573;-71
2023/05/24 01:33:18;;;;;;;4.78;2.00;;;18.50;50.70;;;;;;5092707;28;20634;-72
2023/05/24 01:35:45;;;;;;;9.68;2.30;;;18.50;50.70;;;;;;5092560;28;20190;-71
2023/05/24 01:38:14;;;;;;;8.20;2.30;;;18.50;50.70;;;;;;5092533;28;20279;-71
2023/05/24 01:40:41;;;;;;;6.00;2.47;;;18.50;50.70;;;;;;5091479;28;20186;-71
2023/05/24 01:43:18;;;;;;;5.82;2.42;;;18.40;50.70;;;;;;5092934;28;20216;-71
2023/05/24 01:46:02;;;;;;;5.43;2.10;;;18.40;50.70;;;;;;5092117;28;20209;-71
2023/05/24 01:48:38;;;;;;;4.88;2.05;;;18.40;50.70;;;;;;5092704;28;20209;-71
2023/05/24 01:51:07;;;;;;;4.32;2.00;;;18.40;50.70;;;;;;5089338;28;20231;-71
2023/05/24 01:53:39;;;;;;;4.05;2.15;;;18.40;50.70;;;;;;5072508;28;20214;-71
2023/05/24 01:56:07;;;;;;;6.45;1.80;;;18.40;50.70;;;;;;5072313;28;20277;-71
2023/05/24 01:58:36;;;;;;;4.50;1.77;;;18.40;50.70;;;;;;5072011;28;20814;-71
2023/05/24 02:01:06;;;;;;;5.63;2.20;;;18.40;50.70;;;;;;5072226;28;20293;-71
2023/05/24 02:03:34;;;;;;;4.40;1.95;;;18.40;50.70;;;;;;5071915;28;20781;-71
2023/05/24 02:06:02;;;;;;;4.72;1.98;;;18.40;50.70;;;;;;5071937;28;20215;-70
2023/05/24 02:08:29;;;;;;;4.53;1.77;;;18.40;50.70;;;;;;5072396;28;20214;-71
2023/05/24 02:10:56;;;;;;;7.43;2.20;;;18.40;50.70;;;;;;5071819;28;20735;-71
2023/05/24 02:13:23;;;;;;;7.40;2.10;;;18.40;50.70;;;;;;5071861;28;20598;-71
2023/05/24 02:15:52;;;;;;;5.95;2.25;;;18.40;50.70;;;;;;5070917;28;20191;-70
2023/05/24 02:18:21;;;;;;;7.25;2.60;;;18.40;50.70;;;;;;5037754;28;20264;-71
2023/05/24 02:20:49;;;;;;;7.53;2.10;;;18.40;50.70;;;;;;5070675;28;20229;-71
2023/05/24 02:23:16;;;;;;;3.75;2.00;;;18.40;50.70;;;;;;5071988;28;20301;-71
2023/05/24 02:25:43;;;;;;;4.15;1.88;;;18.40;50.70;;;;;;5071277;28;20680;-71
2023/05/24 02:28:10;;;;;;;4.80;1.88;;;18.40;50.70;;;;;;5070674;28;20214;-71
2023/05/24 02:30:37;;;;;;;5.50;2.00;;;18.40;50.70;;;;;;5071953;28;20190;-71
2023/05/24 02:33:04;;;;;;;4.28;2.03;;;18.40;50.70;;;;;;5071551;28;20613;-71
2023/05/24 02:35:33;;;;;;;5.78;2.03;;;18.40;50.70;;;;;;5071188;28;20221;-71
2023/05/24 02:38:00;;;;;;;6.85;1.98;;;18.40;50.70;;;;;;5071492;28;20218;-71
2023/05/24 02:40:27;;;;;;;6.03;2.40;;;18.40;50.70;;;;;;5053503;28;20203;-71
2023/05/24 02:42:54;;;;;;;6.05;2.10;;;18.40;50.70;;;;;;5071789;28;20223;-71
2023/05/24 02:45:21;;;;;;;4.93;2.30;;;18.30;50.60;;;;;;5071307;28;20561;-71
2023/05/24 02:47:48;;;;;;;5.05;1.92;;;18.40;50.70;;;;;;5071895;28;20222;-71
2023/05/24 02:50:15;;;;;;;3.30;1.80;;;18.40;50.70;;;;;;5053315;28;20237;-71
2023/05/24 02:52:44;;;;;;;6.03;1.95;;;18.30;50.60;;;;;;5089962;28;20302;-71
2023/05/24 02:55:11;;;;;;;5.22;2.20;;;18.30;50.60;;;;;;5095899;28;20204;-71
2023/05/24 02:57:38;;;;;;;6.63;2.13;;;18.30;50.60;;;;;;5095097;28;20946;-70
2023/05/24 03:00:07;;;;;;;7.07;2.22;;;18.30;50.60;;;;;;5095926;28;20193;-71
2023/05/24 03:02:37;;;;;;;4.22;1.83;;;18.30;50.60;;;;;;5095182;28;20586;-71
2023/05/24 03:05:04;;;;;;;5.70;2.30;;;18.30;50.60;;;;;;5095739;28;20210;-71
2023/05/24 03:07:31;;;;;;;3.92;1.92;;;18.30;50.60;;;;;;5095289;28;20220;-71
2023/05/24 03:10:00;;;;;;;4.70;2.10;;;18.30;50.60;;;;;;5095585;28;20182;-71
2023/05/24 03:12:27;;;;;;;6.05;2.30;;;18.30;50.60;;;;;;5095349;28;20221;-71
2023/05/24 03:14:54;;;;;;;4.88;1.95;;;18.30;50.60;;;;;;5095115;28;20186;-70
2023/05/24 03:17:21;;;;;;;6.32;2.00;;;18.30;50.60;;;;;;5095129;28;20225;-71
2023/05/24 03:19:48;;;;;;;5.40;1.90;;;18.30;50.60;;;;;;5077332;28;20659;-71
2023/05/24 03:22:15;;;;;;;7.18;1.98;;;18.30;50.60;;;;;;5094818;28;20218;-71
2023/05/24 03:24:43;;;;;;;5.53;1.80;;;18.30;50.60;;;;;;5076793;28;20966;-70
2023/05/24 03:27:11;;;;;;;4.80;1.95;;;18.30;50.60;;;;;;5094666;28;20586;-71
2023/05/24 03:29:38;;;;;;;4.05;1.88;;;18.30;50.60;;;;;;5095043;28;20186;-71
2023/05/24 03:32:05;;;;;;;5.70;2.03;;;18.30;50.60;;;;;;5094921;28;20216;-70
2023/05/24 03:34:32;;;;;;;4.53;2.13;;;18.20;50.50;;;;;;5077288;28;20193;-70
2023/05/24 03:36:59;;;;;;;5.18;2.10;;;18.30;50.60;;;;;;5094113;28;20217;-71
2023/05/24 03:39:26;;;;;;;3.92;2.08;;;18.30;50.60;;;;;;5095325;28;20194;-70
2023/05/24 03:41:53;;;;;;;3.42;2.25;;;18.30;50.60;;;;;;5094296;28;20647;-71
2023/05/24 03:44:22;;;;;;;6.85;2.05;;;18.30;50.60;;;;;;5094547;28;20644;-70
2023/05/24 03:46:49;;;;;;;7.60;2.38;;;18.20;50.60;;;;;;5094419;28;20357;-71
2023/05/24 03:49:16;;;;;;;7.35;2.10;;;18.20;50.50;;;;;;5094383;28;20286;-70
2023/05/24 03:51:43;;;;;;;5.40;1.85;;;18.30;50.60;;;;;;5086258;28;20653;-70
2023/05/24 03:54:10;;;;;;;4.68;1.90;;;18.20;50.50;;;;;;5074523;28;20193;-71
2023/05/24 03:56:37;;;;;;;4.10;1.88;;;18.20;50.60;;;;;;5074567;28;20198;-70
2023/05/24 03:59:04;;;;;;;3.90;2.00;;;18.20;50.60;;;;;;5074369;28;20193;-71
2023/05/24 04:01:35;;;;;;;7.97;2.20;;;18.20;50.60;;;;;;5074504;28;20198;-71
2023/05/24 04:04:02;;;;;;;3.95;2.05;;;18.20;50.60;;;;;;5073438;28;20221;-71
2023/05/24 04:06:30;;;;;;;3.20;1.70;;;18.20;50.60;;;;;;5074543;28;20301;-71
2023/05/24 04:08:57;;;;;;;5.35;1.70;;;18.20;50.60;;;;;;5074202;28;20264;-71
2023/05/24 04:11:27;;;;;;;6.82;2.00;;;18.20;50.60;;;;;;5074194;28;20197;-71
2023/05/24 04:13:54;;;;;;;5.78;1.83;;;18.20;50.60;;;;;;5074049;28;20218;-70
2023/05/24 04:16:22;;;;;;;5.60;2.03;;;18.20;50.60;;;;;;5074346;28;20183;-70
2023/05/24 04:18:52;;;;;;;6.38;2.00;;;18.20;51.30;;;;;;5073846;28;20218;-70
2023/05/24 04:21:19;;;;;;;6.22;2.13;;;18.20;50.70;;;;;;5042870;28;20713;-70
2023/05/24 04:23:46;;;;;;;4.47;2.13;;;18.20;50.70;;;;;;5094142;28;20595;-71
2023/05/24 04:26:14;;;;;;;6.25;2.17;;;18.20;50.60;;;;;;5093972;28;20228;-71
2023/05/24 04:28:41;;;;;;;5.63;2.20;;;18.20;50.70;;;;;;5093988;28;20218;-71
2023/05/24 04:31:09;;;;;;;7.55;2.10;;;18.20;50.70;;;;;;5093823;28;20192;-71
2023/05/24 04:33:38;;;;;;;6.93;1.83;;;18.20;50.70;;;;;;5093748;28;20218;-71
2023/05/24 04:36:10;;;;;;;4.13;1.90;;;18.20;50.70;;;;;;5093636;28;20607;-71
2023/05/24 04:38:37;;;;;;;3.80;1.75;;;18.20;50.70;;;;;;5093723;28;20217;-71
2023/05/24 04:41:05;;;;;;;4.43;2.00;;;18.20;50.70;;;;;;5093359;28;20190;-71
2023/05/24 04:43:32;;;;;;;5.18;2.00;;;18.20;50.70;;;;;;5093725;28;20226;-71
2023/05/24 04:45:59;;;;;;;3.08;1.80;;;18.20;50.70;;;;;;5093586;28;20214;-70
2023/05/24 04:48:27;;;;;;;3.75;1.77;;;18.20;50.80;;;;;;5093471;28;20218;-71
2023/05/24 04:50:55;;;;;;;3.75;1.98;;;18.20;50.80;;;;;;5092180;28;20706;-70
2023/05/24 04:53:24;;;;;;;6.68;2.13;;;18.20;51.40;;;;;;5073209;28;20221;-71
2023/05/24 04:55:51;;;;;;;6.15;1.77;;;18.20;50.80;;;;;;5055781;28;20201;-71
2023/05/24 04:58:19;;;;;;;3.70;1.60;;;18.20;50.80;;;;;;5055486;28;20210;-71
2023/05/24 05:00:46;;;;;;;6.35;1.77;;;18.20;50.80;;;;;;5073258;28;20195;-71
2023/05/24 05:03:13;;;;;;;5.32;1.90;;;18.20;50.80;;;;;;5073247;28;20222;-71
2023/05/24 05:05:40;;;;;;;2.47;1.60;;;18.20;50.80;;;;;;5073009;28;20303;-71
2023/05/24 05:08:07;;;;;;;4.47;1.92;;;18.20;50.80;;;;;;5073051;28;20221;-71
2023/05/24 05:10:36;;;;;;;5.68;1.90;;;18.10;50.80;;;;;;5073178;28;20279;-70
2023/05/24 05:13:03;;;;;;;3.45;2.00;;;18.20;50.80;;;;;;5072510;28;20222;-71
2023/05/24 05:15:31;;;;;;;4.50;2.13;;;18.20;50.80;;;;;;5072319;28;20266;-71
2023/05/24 05:17:58;;;;;;;5.05;2.13;;;18.20;50.80;;;;;;5055248;28;20246;-71
2023/05/24 05:20:25;;;;;;;4.60;2.00;;;18.20;50.90;;;;;;5072628;28;20199;-71
2023/05/24 05:22:52;;;;;;;6.70;2.20;;;18.10;50.80;;;;;;5055201;28;20307;-71
2023/05/24 05:25:20;;;;;;;5.20;2.05;;;18.20;50.90;;;;;;5072783;28;20193;-71
2023/05/24 05:27:48;;;;;;;5.43;1.77;;;18.20;51.00;;;;;;5061499;28;20245;-71
2023/05/24 05:30:15;;;;;;;3.20;1.90;;;18.20;50.90;;;;;;5092731;28;20182;-71
2023/05/24 05:32:42;;;;;;;4.63;1.92;;;18.20;50.90;;;;;;5092348;28;20217;-71
2023/05/24 05:35:10;;;;;;;5.43;2.05;;;18.20;51.00;;;;;;5092691;28;20272;-71
2023/05/24 05:37:37;;;;;;;3.72;1.90;;;18.20;51.00;;;;;;5092515;28;20221;-71
2023/05/24 05:40:04;;;;;;;3.83;1.98;;;18.20;51.00;;;;;;5074778;28;20190;-71
2023/05/24 05:42:31;;;;;;;6.68;2.05;;;18.20;51.00;;;;;;5092033;28;20711;-71
2023/05/24 05:45:00;;;;;;;4.72;2.20;;;18.20;51.00;;;;;;5092473;28;20212;-71
2023/05/24 05:47:27;;;;;;;4.38;2.20;;;18.20;51.00;;;;;;5091940;28;20695;-71
2023/05/24 05:49:53;;;;;;;5.22;2.20;;;18.20;51.00;;;;;;5092260;28;20236;-71
2023/05/24 05:52:22;;;;;;;3.33;1.75;;;18.20;51.00;;;;;;5079354;28;20260;-71
2023/05/24 05:54:49;;;;;;;5.65;2.00;;;18.20;51.00;;;;;;5072253;28;20205;-71
2023/05/24 05:57:18;;;;;;;4.70;2.20;;;18.20;51.00;;;;;;5078288;28;20213;-71
2023/05/24 05:59:45;;;;;;;5.65;2.22;;;18.20;51.00;;;;;;5092445;28;20640;-71
2023/05/24 06:02:13;;;;;;;4.97;2.08;;;18.20;51.00;;;;;;5092233;28;20182;-71
2023/05/24 06:04:40;;;;;;;4.07;2.00;;;18.20;51.00;;;;;;5089311;28;20713;-70
2023/05/24 06:07:07;;;;;;;6.20;2.20;;;18.30;50.90;;;;;;5066798;28;20221;-70
2023/05/24 06:09:37;;;;;;;5.32;2.10;;;18.40;51.10;;;;;;5093591;28;20189;-71
2023/05/24 06:12:09;;;;;;;5.43;2.13;;;18.40;50.70;;;;;;5090131;28;20559;-70
2023/05/24 06:14:37;;;;;;;9.60;2.58;;;18.50;50.60;;;;;;5038724;28;20190;-69
2023/05/24 06:17:10;;;;;;;10.00;2.40;;;18.70;50.60;;;;;;5064832;28;20209;-70
2023/05/24 06:19:42;;;;;;;9.05;2.22;;;18.70;50.40;;;;;;5076335;28;20199;-71
2023/05/24 06:22:11;;;;;;;5.15;1.88;;;18.80;50.30;;;;;;5079409;28;20178;-70
2023/05/24 06:24:42;;;;;;;4.82;2.03;;;18.90;50.10;;;;;;5054995;28;20190;-71
2023/05/24 06:27:11;;;;;;;7.60;2.22;;;19.00;50.10;;;;;;5022431;28;20238;-71
2023/05/24 06:29:43;;;;;;;7.50;2.30;;;19.10;50.20;;;;;;4981135;28;20277;-70
2023/05/24 06:32:13;;;;;;;4.60;2.20;;;19.10;50.10;;;;;;5010629;28;20295;-71
2023/05/24 06:34:45;;;;;;;4.57;2.45;;;19.20;49.90;;;;;;4994340;28;20608;-72
2023/05/24 06:37:24;;;;;;;7.03;2.50;;;19.30;49.80;;;;;;5021720;28;20299;-71
2023/05/24 06:40:00;;;;;;;5.45;2.15;;;19.30;49.70;;;;;;5026901;28;20200;-70
2023/05/24 06:42:30;;;;;;;4.97;2.20;;;19.30;49.50;;;;;;5009046;28;20219;-71
2023/05/24 06:45:03;;;;;;;4.53;2.05;;;19.40;49.50;;;;;;5042082;28;20209;-70
2023/05/24 06:47:34;;;;;;;4.80;1.77;;;19.50;49.50;;;;;;5081786;28;20292;-70
2023/05/24 06:53:01;;;;;;;4.30;1.75;;;19.60;49.30;;;;;;5058724;28;20296;-72
2023/05/24 06:55:31;;;;;;;7.25;2.75;;;19.60;49.10;;;;;;5060835;28;20690;-71
2023/05/24 06:58:05;;;;;;;7.15;2.35;;;19.60;49.10;;;;;;5027670;28;20310;-71
2023/05/24 07:00:38;;;;;;;6.22;1.92;;;19.60;49.00;;;;;;5058505;28;20195;-71
2023/05/24 07:03:05;;;;;;;3.80;1.65;;;19.70;49.60;;;;;;5056854;28;20253;-70
2023/05/24 07:05:35;;;;;;;5.28;1.83;;;19.70;48.80;;;;;;5068538;28;20580;-72
2023/05/24 07:08:03;;;;;;;3.58;1.77;;;19.70;48.90;;;;;;5065800;28;20234;-71
2023/05/24 07:10:30;;;;;;;4.20;1.90;;;19.70;48.70;;;;;;5065975;28;20199;-72
2023/05/24 07:12:57;;;;;;;4.88;2.15;;;19.80;48.70;;;;;;5064035;28;20223;-71
2023/05/24 07:15:26;;;;;;;4.50;1.98;;;19.80;48.60;;;;;;5058842;28;20196;-72
2023/05/24 07:17:54;;;;;;;6.07;1.73;;;19.80;48.60;;;;;;5048247;28;20245;-72
2023/05/24 07:20:21;;;;;;;5.50;1.90;;;19.80;48.50;;;;;;5049555;28;20196;-70
2023/05/24 07:22:49;;;;;;;4.47;1.95;;;19.90;48.50;;;;;;5049641;28;20235;-71
2023/05/24 07:25:16;;;;;;;4.97;2.05;;;19.80;48.30;;;;;;5049757;28;20549;-73
2023/05/24 07:27:43;;;;;;;7.78;1.65;;;19.90;48.30;;;;;;5049332;28;20228;-71
2023/05/24 07:30:11;;;;;;;4.82;1.85;;;19.90;48.40;;;;;;5053313;28;20195;-70
2023/05/24 07:32:38;;;;;;;5.15;1.70;;;19.90;48.30;;;;;;5057156;28;20250;-72
2023/05/24 07:35:06;;;;;;;6.05;1.67;;;19.90;48.30;;;;;;5059089;28;20215;-72
2023/05/24 07:37:33;;;;;;;6.70;1.80;;;19.90;48.20;;;;;;5067624;28;20763;-70
2023/05/24 07:40:04;;;;;;;5.72;1.70;;;20.00;48.40;;;;;;5069772;28;20220;-71
2023/05/24 07:42:31;;;;;;;5.40;1.83;;;20.00;48.30;;;;;;5053636;28;20188;-72
2023/05/24 07:44:58;;;;;;;5.25;1.58;;;20.00;48.20;;;;;;5055820;28;20199;-72
2023/05/24 07:47:25;;;;;;;5.18;1.95;;;20.00;48.30;;;;;;5061453;28;20704;-71
2023/05/24 07:49:52;;;;;;;5.78;1.95;;;20.00;48.30;;;;;;5057201;28;20239;-71
2023/05/24 07:52:19;;;;;;;6.38;1.58;;;20.00;48.30;;;;;;5088803;28;20280;-71
2023/05/24 07:54:46;;;;;;;5.28;1.88;;;20.00;48.10;;;;;;5090001;28;20279;-70
2023/05/24 07:57:14;;;;;;;4.60;1.90;;;20.00;48.20;;;;;;5091793;28;20186;-70
2023/05/24 07:59:41;;;;;;;5.95;1.85;;;20.00;48.10;;;;;;5072465;28;20306;-70
2023/05/24 08:02:10;;;;;;;5.82;2.20;;;20.00;48.10;;;;;;5072109;28;20278;-73
2023/05/24 08:04:42;;;;;;;5.60;1.85;;;20.00;48.10;;;;;;5082099;28;20271;-71
2023/05/24 08:07:11;;;;;;;6.07;2.22;;;20.10;48.30;;;;;;5034856;28;20285;-70
2023/05/24 08:09:41;;;;;;;3.80;1.80;;;20.10;48.30;;;;;;5071634;28;20302;-70
2023/05/24 08:12:12;;;;;;;6.38;1.83;;;20.00;48.10;;;;;;5069662;28;20686;-71
2023/05/24 08:14:54;;;;;;;5.28;1.60;;;20.10;48.20;;;;;;5022805;28;20210;-71
2023/05/24 08:17:31;;;;;;;3.95;1.75;;;20.00;48.10;;;;;;5000381;28;20297;-71
2023/05/24 08:20:13;;;;;;;7.00;1.90;;;20.00;48.10;;;;;;5088146;28;20300;-71
2023/05/24 08:22:47;;;;;;;2.88;1.70;;;20.00;48.10;;;;;;5021212;28;20261;-71
2023/05/24 08:25:20;;;;;;;7.95;1.98;;;20.00;48.20;;;;;;5030598;28;20213;-70
2023/05/24 08:27:56;;;;;;;5.65;1.88;;;20.10;48.30;;;;;;5058103;28;20217;-71
2023/05/24 08:30:31;;;;;;;4.88;1.85;;;20.00;48.30;;;;;;5007013;28;20198;-71
2023/05/24 08:33:03;;;;;;;5.63;1.77;;;20.00;48.30;;;;;;5074294;28;20202;-72
2023/05/24 08:35:32;;;;;;;4.60;1.85;;;20.00;48.20;;;;;;5027085;28;20281;-70
2023/05/24 08:38:02;;;;;;;7.65;1.77;;;20.00;48.10;;;;;;5077585;28;20194;-71
2023/05/24 08:40:40;;;;;;;5.10;1.83;;;20.00;48.10;;;;;;5036899;28;20623;-71
2023/05/24 08:43:12;;;;;;;4.53;1.48;;;20.10;48.90;;;;;;5065428;28;20202;-71
2023/05/24 08:45:47;;;;;;;5.22;1.70;;;20.00;48.20;;;;;;5070092;28;20198;-71
2023/05/24 08:48:17;;;;;;;7.18;1.88;;;20.00;48.10;;;;;;5008976;28;20321;-71
2023/05/24 08:50:47;;;;;;;6.38;1.75;;;20.00;48.10;;;;;;5071813;28;20321;-70
2023/05/24 08:53:16;;;;;;;5.22;1.67;;;20.00;48.20;;;;;;5056639;28;20183;-71
2023/05/24 08:55:52;;;;;;;7.15;2.08;;;20.00;48.40;;;;;;5077645;28;20209;-71
2023/05/24 08:58:19;;;;;;;5.50;1.70;;;20.00;48.20;;;;;;5077002;28;20221;-71
2023/05/24 09:00:51;;;;;;;4.43;1.55;;;20.00;48.30;;;;;;5083154;28;20198;-69
2023/05/24 09:03:22;;;;;;;6.43;2.17;;;20.00;48.30;;;;;;5072041;28;20257;-71
2023/05/24 09:05:55;;;;;;;3.80;1.80;;;20.00;48.40;;;;;;5083381;28;20206;-71
2023/05/24 09:08:24;;;;;;;5.05;2.10;;;20.00;48.30;;;;;;5042098;28;20778;-71
2023/05/24 09:11:01;;;;;;;5.43;2.10;;;20.00;48.30;;;;;;5063936;28;20197;-72
2023/05/24 09:13:33;;;;;;;4.35;1.92;;;20.00;48.40;;;;;;5051790;28;20224;-71
2023/05/24 09:16:18;;;;;;;4.22;1.90;;;20.00;48.40;;;;;;5089815;28;20186;-72
2023/05/24 09:18:48;;;;;;;3.70;1.90;;;20.00;48.30;;;;;;5051518;28;20228;-70
2023/05/24 09:21:21;;;;;;;5.82;1.90;;;20.00;48.40;;;;;;5040450;28;20203;-71
2023/05/24 09:23:51;;;;;;;5.53;1.70;;;20.00;48.40;;;;;;5083047;28;20680;-70
2023/05/24 09:26:26;;;;;;;4.15;1.48;;;20.00;48.50;;;;;;5089151;28;20197;-71
2023/05/24 09:29:05;;;;;;;7.18;2.00;;;19.90;48.30;;;;;;5089188;28;20228;-70
2023/05/24 09:31:37;;;;;;;3.97;1.80;;;19.90;48.30;;;;;;5089018;28;20194;-71
2023/05/24 09:34:10;;;;;;;4.57;1.88;;;20.00;48.40;;;;;;5074860;28;20222;-71
2023/05/24 09:36:42;;;;;;;5.43;1.80;;;20.00;48.40;;;;;;5086545;28;20206;-69
2023/05/24 09:39:11;;;;;;;4.53;1.70;;;20.00;48.50;;;;;;5090439;28;20214;-69
2023/05/24 09:41:46;;;;;;;6.28;1.77;;;20.00;48.30;;;;;;5071856;28;20205;-69
2023/05/24 09:44:31;;;;;;;3.78;1.90;;;20.00;48.30;;;;;;5090283;28;20214;-69
2023/05/24 09:47:20;;;;;;;5.38;1.90;;;19.90;48.30;;;;;;5089917;28;20186;-69
2023/05/24 09:49:55;;;;;;;6.10;2.20;;;20.00;48.40;;;;;;5051019;28;20234;-69
2023/05/24 09:52:25;;;;;;;3.58;1.80;;;20.00;48.40;;;;;;5045826;28;20205;-70
2023/05/24 09:54:54;;;;;;;7.00;2.17;;;19.90;48.30;;;;;;5066097;28;20214;-69
2023/05/24 09:57:36;;;;;;;4.65;1.90;;;20.00;48.30;;;;;;5065805;28;20265;-70
2023/05/24 10:00:16;;;;;;;6.15;1.95;;;20.00;48.40;;;;;;5059521;28;20224;-69
2023/05/24 10:03:03;;;;;;;9.02;1.92;;;20.00;48.30;;;;;;5016566;28;20213;-69
2023/05/24 10:05:42;;;;;;;5.18;2.20;;;20.00;48.30;;;;;;5050412;28;20265;-69
2023/05/24 10:08:17;;;;;;;6.78;2.00;;;20.00;48.30;;;;;;5049905;28;20268;-70
2023/05/24 10:10:56;;;;;;;3.90;2.00;;;20.00;48.30;;;;;;5050247;28;20231;-70
2023/05/24 10:13:30;;;;;;;5.40;2.10;;;20.00;48.30;;;;;;5017752;28;20199;-71
2023/05/24 10:16:02;;;;;;;5.85;2.17;;;20.00;48.30;;;;;;5033433;28;20215;-70
2023/05/24 10:18:34;;;;;;;3.35;1.70;;;20.00;48.20;;;;;;5050899;28;20214;-70
2023/05/24 10:21:11;;;;;;;5.55;2.13;;;20.00;48.20;;;;;;5040841;28;20236;-69
2023/05/24 10:23:42;;;;;;;5.25;2.58;;;20.00;48.20;;;;;;5017444;28;20925;-69
2023/05/24 10:26:20;;;;;;;3.15;1.90;;;20.00;48.20;;;;;;5061770;28;20693;-70
2023/05/24 10:29:02;;;;;;;5.30;2.03;;;20.00;48.20;;;;;;5027625;28;20310;-69
2023/05/24 10:31:42;;;;;;;5.13;2.00;;;19.90;48.10;;;;;;4989171;28;20325;-70
2023/05/24 10:34:13;;;;;;;6.68;2.13;;;20.00;48.90;;;;;;4951019;28;20267;-70
2023/05/24 10:36:44;;;;;;;5.88;2.22;;;19.90;48.10;;;;;;4989043;28;20198;-70
2023/05/24 10:39:14;;;;;;;4.82;1.88;;;19.90;48.10;;;;;;4954255;28;20268;-72
2023/05/24 10:41:43;;;;;;;5.38;2.22;;;19.90;48.10;;;;;;4974885;28;20193;-71
2023/05/24 10:44:26;;;;;;;3.28;2.03;;;19.90;48.20;;;;;;5006737;28;20193;-71
2023/05/24 10:47:12;;;;;;;5.05;2.03;;;19.90;48.80;;;;;;5018220;28;20630;-70
2023/05/24 10:49:51;;;;;;;5.57;2.03;;;19.90;48.10;;;;;;5025309;28;20255;-70
2023/05/24 10:52:23;;;;;;;4.18;1.80;;;19.90;48.10;;;;;;5021032;28;20728;-71
2023/05/24 10:55:12;;;;;;;2.95;1.95;;;19.90;48.10;;;;;;4977501;28;20228;-72
2023/05/24 10:57:41;;;;;;;6.93;2.35;;;19.90;48.10;;;;;;4991287;28;20200;-72
2023/05/24 11:00:27;;;;;;;3.88;1.80;;;19.90;48.10;;;;;;4996204;28;20223;-72
2023/05/24 11:03:01;;;;;;;5.50;2.20;;;19.90;48.00;;;;;;5022811;28;20606;-72
2023/05/24 11:05:35;;;;;;;5.13;2.40;;;19.90;48.10;;;;;;5027600;28;20239;-70
2023/05/24 11:08:04;;;;;;;3.53;2.10;;;19.80;47.90;;;;;;5028922;28;20687;-71
2023/05/24 11:10:32;;;;;;;5.80;2.20;;;19.80;48.00;;;;;;5049930;28;20270;-71
2023/05/24 11:13:01;;;;;;;10.60;2.90;;;19.80;47.90;;;;;;5051462;28;20192;-71
2023/05/24 11:15:29;;;;;;;4.05;2.10;;;19.80;47.90;;;;;;5054424;28;20222;-71
2023/05/24 11:18:15;;;;;;;5.95;2.60;;;19.80;47.90;;;;;;5053265;28;20184;-70
2023/05/24 11:20:45;;;;;;;5.75;2.83;;;19.80;47.90;;;;;;5053852;28;20298;-70
2023/05/24 11:23:14;;;;;;;5.53;2.38;;;19.80;47.90;;;;;;5053441;28;20642;-70
2023/05/24 11:25:41;;;;;;;6.35;2.58;;;19.80;47.90;;;;;;5053879;28;20220;-71
2023/05/24 11:28:09;;;;;;;6.10;2.08;;;19.80;48.00;;;;;;5052699;28;20214;-72
2023/05/24 11:30:40;;;;;;;5.43;2.35;;;19.80;47.90;;;;;;5053584;28;20273;-69
2023/05/24 11:33:14;;;;;;;5.35;2.20;;;19.80;48.00;;;;;;5053898;28;20791;-70
2023/05/24 11:35:42;;;;;;;7.65;2.50;;;19.80;48.00;;;;;;5053671;28;20215;-70
2023/05/24 11:38:13;;;;;;;4.95;2.38;;;19.80;48.00;;;;;;5053385;28;20192;-69
2023/05/24 11:40:43;;;;;;;5.85;2.40;;;19.80;48.00;;;;;;5049825;28;20712;-70
2023/05/24 11:43:13;;;;;;;4.53;2.50;;;19.80;48.00;;;;;;5053808;28;20184;-70
2023/05/24 11:45:43;;;;;;;6.50;2.58;;;19.80;48.00;;;;;;5048733;28;20303;-70
2023/05/24 11:48:11;;;;;;;5.05;2.30;;;19.80;48.00;;;;;;5052149;28;20306;-70
2023/05/24 11:50:41;;;;;;;4.95;2.28;;;19.80;48.00;;;;;;5041062;28;20433;-69
2023/05/24 11:53:13;;;;;;;6.32;2.30;;;19.80;48.00;;;;;;5052155;28;20230;-70
2023/05/24 11:55:41;;;;;;;4.15;2.22;;;19.80;48.00;;;;;;5049524;28;20614;-69
2023/05/24 11:58:24;;;;;;;9.10;2.72;;;19.80;48.00;;;;;;5051085;28;20195;-70
2023/05/24 12:00:53;;;;;;;5.32;2.53;;;19.80;48.10;;;;;;5053441;28;20219;-69
2023/05/24 12:03:21;;;;;;;7.00;3.00;;;19.70;48.10;;;;;;5005850;28;20708;-69
2023/05/24 12:05:50;;;;;;;4.50;2.28;;;19.80;48.10;;;;;;5019884;28;20239;-71
2023/05/24 12:08:19;;;;;;;11.15;2.63;;;19.80;48.10;;;;;;5045150;28;20629;-70
2023/05/24 12:10:49;;;;;;;3.92;2.25;;;19.90;48.00;;;;;;5051181;28;20231;-69
2023/05/24 12:13:22;;;;;;;14.88;2.72;;;19.90;48.10;;;;;;5052200;28;20191;-70
2023/05/24 12:15:51;;;;;;;8.25;3.03;;;20.00;48.00;;;;;;5051576;28;20219;-72
2023/05/24 12:18:19;;;;;;;11.18;3.50;;;20.10;48.00;;;;;;5043616;28;20196;-69
2023/05/24 12:20:47;;;;;;;7.40;3.13;;;20.10;48.00;;;;;;5044660;28;20223;-70
2023/05/24 12:23:16;;;;;;;7.22;3.10;;;20.10;47.90;;;;;;5050420;28;20720;-70
2023/05/24 12:25:45;;;;;;;12.00;3.55;;;20.20;48.00;;;;;;5049539;28;20220;-69
2023/05/24 12:28:13;;;;;;;7.38;3.30;;;20.30;48.00;;;;;;5050468;28;20238;-73
2023/05/24 12:30:43;;;;;;;7.43;3.17;;;20.30;47.90;;;;;;5039699;28;20223;-70
2023/05/24 12:33:10;;;;;;;8.93;3.20;;;20.40;48.00;;;;;;5049243;28;20215;-70
2023/05/24 12:35:40;;;;;;;8.88;3.20;;;20.40;48.00;;;;;;5049965;28;20215;-71
2023/05/24 12:38:10;;;;;;;7.25;2.80;;;20.50;47.80;;;;;;5050546;28;20211;-71
2023/05/24 12:40:38;;;;;;;9.20;3.38;;;20.50;47.60;;;;;;5050495;28;20219;-70
2023/05/24 12:43:07;;;;;;;9.02;3.17;;;20.50;47.50;;;;;;5049264;28;20200;-71
2023/05/24 12:45:38;;;;;;;9.30;2.95;;;20.60;47.80;;;;;;5046454;28;20220;-73
2023/05/24 12:48:08;;;;;;;8.20;2.90;;;20.60;47.70;;;;;;5030155;28;20215;-71
2023/05/24 12:50:36;;;;;;;6.43;2.97;;;20.60;47.50;;;;;;5064514;28;20237;-71
2023/05/24 12:53:10;;;;;;;9.50;3.50;;;20.70;47.70;;;;;;5074177;28;20203;-72
2023/05/24 12:55:38;;;;;;;7.88;2.83;;;20.70;48.10;;;;;;5079638;28;20221;-71
2023/05/24 12:58:09;;;;;;;12.25;3.85;;;20.70;48.10;;;;;;5075073;28;20282;-73
2023/05/24 13:00:36;;;;;;;7.57;3.20;;;20.80;47.40;;;;;;5076599;28;20571;-72
2023/05/24 13:03:07;;;;;;;10.27;3.53;;;20.80;47.40;;;;;;5087622;28;20309;-69